createdAt,value
2018-05-13T00:00:02.950Z,18.90
2018-05-13T00:02:30.374Z,19.00
2018-05-13T00:04:57.891Z,19.00
2018-05-13T00:07:26.083Z,19.00
2018-05-13T00:09:53.497Z,19.00
2018-05-13T00:12:21.013Z,18.90
2018-05-13T00:14:48.434Z,18.90
2018-05-13T00:17:16.025Z,18.90
2018-05-13T00:19:43.431Z,18.80
2018-05-13T00:22:10.862Z,18.80
2018-05-13T00:24:39.075Z,18.70
2018-05-13T00:27:06.501Z,18.70
2018-05-13T00:29:33.917Z,18.70
2018-05-13T00:32:01.337Z,18.70
2018-05-13T00:34:28.853Z,18.70
2018-05-13T00:36:56.269Z,18.70
2018-05-13T00:39:23.691Z,18.60
2018-05-13T00:41:51.109Z,18.60
2018-05-13T00:44:18.538Z,18.60
2018-05-13T00:46:45.968Z,18.60
2018-05-13T00:49:13.480Z,18.60
2018-05-13T00:51:41.657Z,18.50
2018-05-13T00:54:21.843Z,18.50
2018-05-13T00:56:49.267Z,18.50
2018-05-13T00:59:16.777Z,18.30
2018-05-13T01:01:44.196Z,18.10
2018-05-13T01:04:11.690Z,18.10
2018-05-13T01:06:39.882Z,18.10
2018-05-13T01:09:08.074Z,18.00
2018-05-13T01:11:36.256Z,18.00
2018-05-13T01:14:04.453Z,18.00
2018-05-13T01:16:31.877Z,18.00
2018-05-13T01:18:59.293Z,18.00
2018-05-13T01:21:26.719Z,18.00
2018-05-13T01:23:54.137Z,17.90
2018-05-13T01:26:21.557Z,17.90
2018-05-13T01:28:48.978Z,17.90
2018-05-13T01:31:16.451Z,18.00
2018-05-13T01:33:43.860Z,18.00
2018-05-13T01:36:11.281Z,18.00
2018-05-13T01:38:38.704Z,18.00
2018-05-13T01:41:06.129Z,18.00
2018-05-13T01:43:33.587Z,18.00
2018-05-13T01:46:01.089Z,17.90
2018-05-13T01:48:28.534Z,17.90
2018-05-13T01:50:55.951Z,17.80
2018-05-13T01:53:23.390Z,17.70
2018-05-13T01:55:50.847Z,17.70
2018-05-13T01:58:19.026Z,17.60
2018-05-13T02:00:46.512Z,17.60
2018-05-13T02:03:14.668Z,17.50
2018-05-13T02:05:42.844Z,17.50
2018-05-13T02:08:11.065Z,17.50
2018-05-13T02:10:38.482Z,17.50
2018-05-13T02:13:05.920Z,17.30
2018-05-13T02:15:33.368Z,17.20
2018-05-13T02:18:00.809Z,17.30
2018-05-13T02:20:28.994Z,17.20
2018-05-13T02:22:56.492Z,17.20
2018-05-13T02:25:23.916Z,17.20
2018-05-13T02:27:51.344Z,17.20
2018-05-13T02:30:18.766Z,17.10
2018-05-13T02:32:46.180Z,17.00
2018-05-13T02:35:13.602Z,16.90
2018-05-13T02:37:41.031Z,16.90
2018-05-13T02:40:08.449Z,16.90
2018-05-13T02:42:35.958Z,16.90
2018-05-13T02:45:04.124Z,17.00
2018-05-13T02:47:32.305Z,17.00
2018-05-13T02:50:00.517Z,16.80
2018-05-13T02:52:27.922Z,16.80
2018-05-13T02:54:55.337Z,16.80
2018-05-13T02:57:23.543Z,16.60
2018-05-13T02:59:50.967Z,16.60
2018-05-13T03:02:19.113Z,16.60
2018-05-13T03:04:46.528Z,16.50
2018-05-13T03:07:13.966Z,16.40
2018-05-13T03:09:41.391Z,16.40
2018-05-13T03:12:08.807Z,16.20
2018-05-13T03:14:36.238Z,16.20
2018-05-13T03:17:03.681Z,16.10
2018-05-13T03:19:31.864Z,16.10
2018-05-13T03:22:00.062Z,16.20
2018-05-13T03:24:28.275Z,16.20
2018-05-13T03:26:55.701Z,16.20
2018-05-13T03:29:23.117Z,16.30
2018-05-13T03:31:50.534Z,16.30
2018-05-13T03:34:18.050Z,16.40
2018-05-13T03:36:45.465Z,16.40
2018-05-13T03:39:12.904Z,16.60
2018-05-13T03:41:40.316Z,16.70
2018-05-13T03:44:07.745Z,16.70
2018-05-13T03:46:35.193Z,16.80
2018-05-13T03:49:02.673Z,16.80
2018-05-13T03:51:30.085Z,16.70
2018-05-13T03:53:57.503Z,16.80
2018-05-13T03:56:24.921Z,16.90
2018-05-13T03:58:52.342Z,17.00
2018-05-13T04:01:19.765Z,16.90
2018-05-13T04:03:47.176Z,16.90
2018-05-13T04:06:14.601Z,16.90
2018-05-13T04:08:53.930Z,17.00
2018-05-13T04:11:33.185Z,17.10
2018-05-13T04:14:12.489Z,17.30
2018-05-13T04:16:39.903Z,17.30
2018-05-13T04:19:07.326Z,17.30
2018-05-13T04:21:34.742Z,17.20
2018-05-13T04:24:02.164Z,17.20
2018-05-13T04:26:29.572Z,17.30
2018-05-13T04:28:57.009Z,17.40
2018-05-13T04:31:24.428Z,17.40
2018-05-13T04:33:51.851Z,17.20
2018-05-13T04:36:19.265Z,17.10
2018-05-13T04:38:46.793Z,17.30
2018-05-13T04:41:14.961Z,17.40
2018-05-13T04:43:43.166Z,17.50
2018-05-13T04:46:10.637Z,17.50
2018-05-13T04:48:38.101Z,17.50
2018-05-13T04:51:05.574Z,17.60
2018-05-13T04:53:32.998Z,17.50
2018-05-13T04:56:00.415Z,17.60
2018-05-13T04:58:27.837Z,17.70
2018-05-13T05:00:55.254Z,17.80
2018-05-13T05:03:22.673Z,17.80
2018-05-13T05:05:50.098Z,17.80
2018-05-13T05:08:17.526Z,18.00
2018-05-13T05:10:45.749Z,18.20
2018-05-13T05:13:13.917Z,18.30
2018-05-13T05:15:41.402Z,18.20
2018-05-13T05:18:08.826Z,18.40
2018-05-13T05:20:36.346Z,18.40
2018-05-13T05:23:04.508Z,18.60
2018-05-13T05:25:32.720Z,18.60
2018-05-13T05:28:00.889Z,18.60
2018-05-13T05:30:29.093Z,18.70
2018-05-13T05:32:57.261Z,18.70
2018-05-13T05:35:25.441Z,18.80
2018-05-13T05:37:53.649Z,18.80
2018-05-13T05:40:21.073Z,18.80
2018-05-13T05:42:48.484Z,18.80
2018-05-13T05:45:15.926Z,18.90
2018-05-13T05:47:43.316Z,19.00
2018-05-13T05:50:10.777Z,19.10
2018-05-13T05:52:38.973Z,19.20
2018-05-13T05:55:07.176Z,19.20
2018-05-13T05:57:34.639Z,19.20
2018-05-13T06:00:02.057Z,19.30
2018-05-13T06:02:29.489Z,19.40
2018-05-13T06:04:56.950Z,19.40
2018-05-13T06:07:24.377Z,19.40
2018-05-13T06:09:51.790Z,19.50
2018-05-13T06:12:25.304Z,19.60
2018-05-13T06:14:52.722Z,19.70
2018-05-13T06:17:21.653Z,20.20
2018-05-13T06:19:49.837Z,20.50
2018-05-13T06:22:18.030Z,20.80
2018-05-13T06:24:46.217Z,21.20
2018-05-13T06:27:14.404Z,21.90
2018-05-13T06:29:42.590Z,22.90
2018-05-13T06:32:10.781Z,23.90
2018-05-13T06:34:38.963Z,25.20
2018-05-13T06:37:07.146Z,26.40
2018-05-13T06:39:35.386Z,26.70
2018-05-13T06:42:02.827Z,26.60
2018-05-13T06:44:30.236Z,26.60
2018-05-13T06:46:57.767Z,26.30
2018-05-13T06:49:25.177Z,26.00
2018-05-13T06:51:52.593Z,25.60
2018-05-13T06:54:20.774Z,25.20
2018-05-13T06:56:48.965Z,25.10
2018-05-13T06:59:17.146Z,25.00
2018-05-13T07:01:45.328Z,24.80
2018-05-13T07:04:13.512Z,24.70
2018-05-13T07:06:41.702Z,24.60
2018-05-13T07:09:09.909Z,24.30
2018-05-13T07:11:37.306Z,24.30
2018-05-13T07:14:04.723Z,24.10
2018-05-13T07:16:32.222Z,24.00
2018-05-13T07:18:59.568Z,23.90
2018-05-13T07:21:27.069Z,23.80
2018-05-13T07:23:54.476Z,23.70
2018-05-13T07:26:21.902Z,23.50
2018-05-13T07:28:49.377Z,23.50
2018-05-13T07:31:17.545Z,23.20
2018-05-13T07:33:45.724Z,23.20
2018-05-13T07:36:13.913Z,23.30
2018-05-13T07:38:42.117Z,23.50
2018-05-13T07:41:09.590Z,23.40
2018-05-13T07:43:37.001Z,23.60
2018-05-13T07:46:04.536Z,23.80
2018-05-13T07:48:32.697Z,24.10
2018-05-13T07:51:00.972Z,24.20
2018-05-13T07:53:29.061Z,24.30
2018-05-13T07:55:57.253Z,24.40
2018-05-13T07:58:25.429Z,24.40
2018-05-13T08:00:52.940Z,24.30
2018-05-13T08:03:20.516Z,24.40
2018-05-13T08:05:47.913Z,24.50
2018-05-13T08:08:15.351Z,24.70
2018-05-13T08:10:43.539Z,25.20
2018-05-13T08:13:10.951Z,25.20
2018-05-13T08:15:38.361Z,25.40
2018-05-13T08:18:05.777Z,25.40
2018-05-13T08:20:33.307Z,25.60
2018-05-13T08:23:01.414Z,25.70
2018-05-13T08:25:28.875Z,25.70
2018-05-13T08:27:57.046Z,25.50
2018-05-13T08:30:24.453Z,25.40
2018-05-13T08:32:51.899Z,25.40
2018-05-13T08:35:19.304Z,25.70
2018-05-13T08:37:46.797Z,25.80
2018-05-13T08:40:14.206Z,25.80
2018-05-13T08:42:42.393Z,25.80
2018-05-13T08:45:10.553Z,25.70
2018-05-13T08:47:38.747Z,25.80
2018-05-13T08:50:07.057Z,26.00
2018-05-13T08:52:35.216Z,26.20
2018-05-13T08:55:03.396Z,26.40
2018-05-13T08:57:31.576Z,26.30
2018-05-13T08:59:58.988Z,26.20
2018-05-13T09:02:26.457Z,26.10
2018-05-13T09:04:53.862Z,25.70
2018-05-13T09:07:21.276Z,25.70
2018-05-13T09:09:49.452Z,25.10
2018-05-13T09:12:17.641Z,25.20
2018-05-13T09:14:45.812Z,25.40
2018-05-13T09:17:13.233Z,25.40
2018-05-13T09:19:40.641Z,25.80
2018-05-13T09:22:08.066Z,26.20
2018-05-13T09:24:35.472Z,26.40
2018-05-13T09:27:02.889Z,26.40
2018-05-13T09:29:30.316Z,26.60
2018-05-13T09:31:57.725Z,26.90
2018-05-13T09:34:25.139Z,26.70
2018-05-13T09:36:52.558Z,26.60
2018-05-13T09:39:20.861Z,26.80
2018-05-13T09:44:24.864Z,26.80
2018-05-13T09:46:52.393Z,27.20
2018-05-13T09:49:19.788Z,27.20
2018-05-13T09:51:47.226Z,27.50
2018-05-13T09:54:14.632Z,27.60
2018-05-13T09:56:42.058Z,27.50
2018-05-13T09:59:09.465Z,27.80
2018-05-13T10:01:36.893Z,27.90
2018-05-13T10:04:04.375Z,28.10
2018-05-13T10:06:31.781Z,28.10
2018-05-13T10:08:59.192Z,28.00
2018-05-13T10:11:27.389Z,28.10
2018-05-13T10:13:54.874Z,28.00
2018-05-13T10:16:22.291Z,27.90
2018-05-13T10:18:49.697Z,27.60
2018-05-13T10:21:17.170Z,27.70
2018-05-13T10:23:44.582Z,27.60
2018-05-13T10:26:12.018Z,27.30
2018-05-13T10:28:39.417Z,27.50
2018-05-13T10:31:06.833Z,27.60
2018-05-13T10:33:35.009Z,27.90
2018-05-13T10:36:03.194Z,27.80
2018-05-13T10:38:30.622Z,27.80
2018-05-13T10:40:58.058Z,27.80
2018-05-13T10:43:25.539Z,27.90
2018-05-13T10:45:52.993Z,28.10
2018-05-13T10:48:20.418Z,28.30
2018-05-13T10:50:47.942Z,28.40
2018-05-13T10:53:15.350Z,28.40
2018-05-13T10:55:42.806Z,28.60
2018-05-13T10:58:10.217Z,28.70
2018-05-13T11:00:38.421Z,28.90
2018-05-13T11:03:06.597Z,28.70
2018-05-13T11:05:34.793Z,28.70
2018-05-13T11:08:02.964Z,28.70
2018-05-13T11:10:31.888Z,28.80
2018-05-13T11:13:00.076Z,29.00
2018-05-13T11:15:28.265Z,29.20
2018-05-13T11:17:56.440Z,29.30
2018-05-13T11:20:24.621Z,29.30
2018-05-13T11:22:52.835Z,29.20
2018-05-13T11:25:20.258Z,29.20
2018-05-13T11:27:47.671Z,29.20
2018-05-13T11:30:15.085Z,29.50
2018-05-13T11:32:42.492Z,29.60
2018-05-13T11:35:09.921Z,29.70
2018-05-13T11:37:37.352Z,29.80
2018-05-13T11:40:04.821Z,29.60
2018-05-13T11:42:32.300Z,28.80
2018-05-13T11:44:59.700Z,28.40
2018-05-13T11:47:27.137Z,28.10
2018-05-13T11:49:55.325Z,27.90
2018-05-13T11:52:23.511Z,27.90
2018-05-13T11:54:50.917Z,27.90
2018-05-13T11:57:18.340Z,27.80
2018-05-13T11:59:45.919Z,27.80
2018-05-13T12:02:14.170Z,27.70
2018-05-13T12:04:41.574Z,27.70
2018-05-13T12:07:08.994Z,27.80
2018-05-13T12:09:36.414Z,28.10
2018-05-13T12:12:03.829Z,28.30
2018-05-13T12:14:32.757Z,28.50
2018-05-13T12:17:00.929Z,28.60
2018-05-13T12:19:28.346Z,28.60
2018-05-13T12:21:55.814Z,28.60
2018-05-13T12:24:23.230Z,28.50
2018-05-13T12:26:51.471Z,28.60
2018-05-13T12:29:18.885Z,28.60
2018-05-13T12:31:46.295Z,28.80
2018-05-13T12:34:13.794Z,29.00
2018-05-13T12:36:41.252Z,29.30
2018-05-13T12:39:09.418Z,29.40
2018-05-13T12:41:37.597Z,29.30
2018-05-13T12:44:05.784Z,29.30
2018-05-13T12:46:34.046Z,29.50
2018-05-13T12:49:02.179Z,29.30
2018-05-13T12:51:29.594Z,29.40
2018-05-13T12:53:57.018Z,29.30
2018-05-13T12:56:24.500Z,29.30
2018-05-13T12:58:51.885Z,29.20
2018-05-13T13:01:19.302Z,29.20
2018-05-13T13:03:47.567Z,29.50
2018-05-13T13:06:15.035Z,29.50
2018-05-13T13:08:42.357Z,29.50
2018-05-13T13:11:09.778Z,29.20
2018-05-13T13:13:37.195Z,29.00
2018-05-13T13:16:04.615Z,28.80
2018-05-13T13:18:32.133Z,28.70
2018-05-13T13:20:59.544Z,28.60
2018-05-13T13:23:26.976Z,28.40
2018-05-13T13:25:54.462Z,28.30
2018-05-13T13:28:21.810Z,27.90
2018-05-13T13:30:49.248Z,27.80
2018-05-13T13:33:16.637Z,27.70
2018-05-13T13:35:44.058Z,27.70
2018-05-13T13:38:11.468Z,27.40
2018-05-13T13:40:39.654Z,26.80
2018-05-13T13:43:07.856Z,26.50
2018-05-13T13:45:35.294Z,26.40
2018-05-13T13:48:02.685Z,26.40
2018-05-13T13:50:30.160Z,26.30
2018-05-13T13:52:57.576Z,26.20
2018-05-13T13:55:24.996Z,26.00
2018-05-13T13:57:52.411Z,25.90
2018-05-13T14:00:19.826Z,25.80
2018-05-13T14:02:48.013Z,25.70
2018-05-13T14:05:16.187Z,25.70
2018-05-13T14:07:44.372Z,25.70
2018-05-13T14:10:11.780Z,25.70
2018-05-13T14:12:39.197Z,25.70
2018-05-13T14:15:06.608Z,25.60
2018-05-13T14:17:34.077Z,25.50
2018-05-13T14:20:01.596Z,25.60
2018-05-13T14:22:29.700Z,25.40
2018-05-13T14:24:57.137Z,25.40
2018-05-13T14:27:24.581Z,25.30
2018-05-13T14:29:51.994Z,25.20
2018-05-13T14:32:19.519Z,25.20
2018-05-13T14:34:46.924Z,25.00
2018-05-13T14:37:14.458Z,24.80
2018-05-13T14:39:42.005Z,24.70
2018-05-13T14:42:09.334Z,24.70
2018-05-13T14:44:36.754Z,24.70
2018-05-13T14:47:04.944Z,24.70
2018-05-13T14:49:32.368Z,24.70
2018-05-13T14:51:59.777Z,24.70
2018-05-13T14:54:27.978Z,25.20
2018-05-13T14:56:55.384Z,25.10
2018-05-13T14:59:22.809Z,25.40
2018-05-13T15:01:50.288Z,25.80
2018-05-13T15:04:17.701Z,26.00
2018-05-13T15:06:45.120Z,26.20
2018-05-13T15:09:12.593Z,26.10
2018-05-13T15:11:40.061Z,26.10
2018-05-13T15:14:07.474Z,26.30
2018-05-13T15:16:34.935Z,26.10
2018-05-13T15:19:03.065Z,25.60
2018-05-13T15:21:31.262Z,25.30
2018-05-13T15:23:59.449Z,25.00
2018-05-13T15:26:27.620Z,24.60
2018-05-13T15:28:55.813Z,24.30
2018-05-13T15:31:23.984Z,24.10
2018-05-13T15:33:51.394Z,24.10
2018-05-13T15:36:18.808Z,24.00
2018-05-13T15:38:46.216Z,23.90
2018-05-13T15:41:13.638Z,23.70
2018-05-13T15:43:41.049Z,23.70
2018-05-13T15:46:09.229Z,23.80
2018-05-13T15:48:37.428Z,23.80
2018-05-13T15:51:05.634Z,23.70
2018-05-13T15:53:33.037Z,23.70
2018-05-13T15:56:00.457Z,23.60
2018-05-13T15:58:28.634Z,23.40
2018-05-13T16:00:56.817Z,23.10
2018-05-13T16:03:24.992Z,22.90
2018-05-13T16:05:52.415Z,22.90
2018-05-13T16:08:19.821Z,22.70
2018-05-13T16:10:47.313Z,22.70
2018-05-13T16:13:15.492Z,22.60
2018-05-13T16:15:42.998Z,22.60
2018-05-13T16:18:10.409Z,22.50
2018-05-13T16:20:37.866Z,22.50
2018-05-13T16:23:05.252Z,22.50
2018-05-13T16:25:32.657Z,22.60
2018-05-13T16:28:00.833Z,22.60
2018-05-13T16:30:29.013Z,22.60
2018-05-13T16:32:56.434Z,22.60
2018-05-13T16:35:23.850Z,22.70
2018-05-13T16:37:51.355Z,22.60
2018-05-13T16:40:18.756Z,22.60
2018-05-13T16:42:46.173Z,22.60
2018-05-13T16:45:14.357Z,22.60
2018-05-13T16:47:42.558Z,22.50
2018-05-13T16:50:10.039Z,22.40
2018-05-13T16:52:37.451Z,22.30
2018-05-13T16:55:04.865Z,22.30
2018-05-13T16:57:32.337Z,22.10
2018-05-13T16:59:59.754Z,22.10
2018-05-13T17:02:27.253Z,21.90
2018-05-13T17:04:55.341Z,21.80
2018-05-13T17:07:23.531Z,21.70
2018-05-13T17:09:50.933Z,21.70
2018-05-13T17:12:18.352Z,21.70
2018-05-13T17:14:45.761Z,21.70
2018-05-13T17:17:13.274Z,21.70
2018-05-13T17:19:40.584Z,21.70
2018-05-13T17:22:08.781Z,21.60
2018-05-13T17:24:36.198Z,21.70
2018-05-13T17:27:03.612Z,21.50
2018-05-13T17:29:31.785Z,21.50
2018-05-13T17:31:59.969Z,21.50
2018-05-13T17:34:28.144Z,21.30
2018-05-13T17:36:55.567Z,21.40
2018-05-13T17:39:23.050Z,21.30
2018-05-13T17:41:50.393Z,21.10
2018-05-13T17:44:17.825Z,20.80
2018-05-13T17:46:45.337Z,20.60
2018-05-13T17:49:12.736Z,20.30
2018-05-13T17:51:40.149Z,20.30
2018-05-13T17:54:08.439Z,20.00
2018-05-13T17:56:35.835Z,20.00
2018-05-13T17:59:03.407Z,19.90
2018-05-13T18:01:31.569Z,19.80
2018-05-13T18:03:59.780Z,19.70
2018-05-13T18:06:27.936Z,19.60
2018-05-13T18:08:55.368Z,19.60
2018-05-13T18:11:22.808Z,19.60
2018-05-13T18:13:50.977Z,19.40
2018-05-13T18:16:19.150Z,19.40
2018-05-13T18:18:47.366Z,19.30
2018-05-13T18:21:14.828Z,19.30
2018-05-13T18:23:42.410Z,19.20
2018-05-13T18:26:10.572Z,19.10
2018-05-13T18:28:38.756Z,19.00
2018-05-13T18:31:07.170Z,18.90
2018-05-13T18:33:34.493Z,18.90
2018-05-13T18:36:01.904Z,18.80
2018-05-13T18:38:29.329Z,18.80
2018-05-13T18:40:56.750Z,18.70
2018-05-13T18:43:24.172Z,18.70
2018-05-13T18:45:53.102Z,18.70
2018-05-13T18:48:21.323Z,18.70
2018-05-13T18:50:48.737Z,18.70
2018-05-13T18:53:16.161Z,18.70
2018-05-13T18:55:43.586Z,18.70
2018-05-13T18:58:11.805Z,18.90
2018-05-13T19:00:39.268Z,18.90
2018-05-13T19:03:06.689Z,18.80
2018-05-13T19:05:34.115Z,18.80
2018-05-13T19:08:02.563Z,18.80
2018-05-13T19:10:30.042Z,18.70
2018-05-13T19:12:57.457Z,18.60
2018-05-13T19:15:24.883Z,18.70
2018-05-13T19:17:53.867Z,18.60
2018-05-13T19:20:21.289Z,18.60
2018-05-13T19:22:48.722Z,18.50
2018-05-13T19:25:16.229Z,18.40
2018-05-13T19:27:44.549Z,18.50
2018-05-13T19:30:11.966Z,18.50
2018-05-13T19:32:40.699Z,18.50
2018-05-13T19:35:08.125Z,18.50
2018-05-13T19:37:35.545Z,18.50
2018-05-13T19:40:03.102Z,18.50
2018-05-13T19:42:31.270Z,18.40
2018-05-13T19:44:59.454Z,18.40
2018-05-13T19:47:27.649Z,18.40
2018-05-13T19:49:55.850Z,18.30
2018-05-13T19:52:24.023Z,18.40
2018-05-13T19:54:51.446Z,18.40
2018-05-13T19:57:18.956Z,18.40
2018-05-13T19:59:47.149Z,18.40
2018-05-13T20:02:14.649Z,18.30
2018-05-13T20:04:42.083Z,18.30
2018-05-13T20:07:10.270Z,18.30
2018-05-13T20:09:37.765Z,18.20
2018-05-13T20:12:05.109Z,18.20
2018-05-13T20:14:33.363Z,18.20
2018-05-13T20:17:00.772Z,18.20
2018-05-13T20:19:28.253Z,18.20
2018-05-13T20:21:55.673Z,18.20
2018-05-13T20:24:23.117Z,18.20
2018-05-13T20:26:50.562Z,18.30
2018-05-13T20:29:18.037Z,18.30
2018-05-13T20:31:46.280Z,18.10
2018-05-13T20:34:13.710Z,18.10
2018-05-13T20:36:41.132Z,18.20
2018-05-13T20:39:09.322Z,18.10
2018-05-13T20:41:37.538Z,18.10
2018-05-13T20:44:05.701Z,18.10
2018-05-13T20:46:33.169Z,18.00
2018-05-13T20:49:01.383Z,17.90
2018-05-13T20:51:29.565Z,17.90
2018-05-13T20:53:56.990Z,17.90
2018-05-13T20:56:24.410Z,17.90
2018-05-13T20:58:51.837Z,17.90
2018-05-13T21:01:19.274Z,17.90
2018-05-13T21:03:46.712Z,17.90
2018-05-13T21:06:14.135Z,17.90
2018-05-13T21:08:41.662Z,17.90
2018-05-13T21:11:09.836Z,18.00
2018-05-13T21:13:37.314Z,17.90
2018-05-13T21:16:04.795Z,17.90
2018-05-13T21:18:32.148Z,17.90
2018-05-13T21:20:59.616Z,17.80
2018-05-13T21:23:27.098Z,17.70
2018-05-13T21:25:55.257Z,17.70
2018-05-13T21:28:23.443Z,17.70
2018-05-13T21:30:51.622Z,17.70
2018-05-13T21:33:19.042Z,17.70
2018-05-13T21:35:46.457Z,17.70
2018-05-13T21:38:13.880Z,17.70
2018-05-13T21:40:41.285Z,17.70
2018-05-13T21:43:08.706Z,17.60
2018-05-13T21:45:36.114Z,17.60
2018-05-13T21:48:03.533Z,17.60
2018-05-13T21:50:31.000Z,17.60
2018-05-13T21:52:58.477Z,17.60
2018-05-13T21:55:25.892Z,17.60
2018-05-13T21:57:53.310Z,17.60
2018-05-13T22:00:20.790Z,17.60
2018-05-13T22:02:48.196Z,17.60
2018-05-13T22:05:15.625Z,17.70
2018-05-13T22:07:43.024Z,17.80
2018-05-13T22:10:10.461Z,17.80
2018-05-13T22:12:37.865Z,17.80
2018-05-13T22:15:05.301Z,17.70
2018-05-13T22:17:32.784Z,17.80
2018-05-13T22:20:00.125Z,17.80
2018-05-13T22:22:27.532Z,17.80
2018-05-13T22:24:54.953Z,17.70
2018-05-13T22:27:23.128Z,17.60
2018-05-13T22:29:51.321Z,17.60
2018-05-13T22:32:19.534Z,17.60
2018-05-13T22:34:46.955Z,17.60
2018-05-13T22:37:14.364Z,17.40
2018-05-13T22:39:41.841Z,17.30
2018-05-13T22:42:09.256Z,17.30
2018-05-13T22:44:36.669Z,17.30
2018-05-13T22:47:04.081Z,17.30
2018-05-13T22:49:31.500Z,17.30
2018-05-13T22:51:59.673Z,17.30
2018-05-13T22:54:27.096Z,17.30
2018-05-13T22:56:54.509Z,17.10
2018-05-13T22:59:21.926Z,17.00
2018-05-13T23:01:49.332Z,17.00
2018-05-13T23:04:16.834Z,17.10
2018-05-13T23:06:44.161Z,17.10
2018-05-13T23:09:11.639Z,17.20
2018-05-13T23:11:39.753Z,17.20
2018-05-13T23:14:07.945Z,17.30
2018-05-13T23:16:36.144Z,17.30
2018-05-13T23:19:03.628Z,17.30
2018-05-13T23:21:31.781Z,17.30
2018-05-13T23:23:59.969Z,17.30
2018-05-13T23:26:28.186Z,17.20
2018-05-13T23:28:55.616Z,17.20
2018-05-13T23:31:23.037Z,17.30
2018-05-13T23:33:50.460Z,17.30
2018-05-13T23:36:18.642Z,17.30
2018-05-13T23:38:46.065Z,17.30
2018-05-13T23:41:13.541Z,17.40
2018-05-13T23:43:41.692Z,17.30
2018-05-13T23:46:09.896Z,17.40
2018-05-13T23:48:37.320Z,17.40
2018-05-13T23:51:04.741Z,17.50
2018-05-13T23:53:32.204Z,17.60
2018-05-13T23:56:00.373Z,17.60
2018-05-13T23:58:28.561Z,17.60
